Capitol Logistics 308


KPVD
Theodore Francis Green State Airport
Providence, Rhode Island, US
KRFD
Chicago/Rockford International Airport
Rockford, Illinois, US

Route Details

Aircraft Information
Primary: Boeing 767-300BDSF
Backup: Not Available
Route Data
Distance: 790nm
Sched. Duration: 1h 39m
Avg. Duration: 2h 27m (+88m)
Times Flown: 9
Recm'd Route: BAF HNK NUGNT DJB J60 JOT V171 RFD
Planned Altitude: 38,000ft
Origin Wx: KPVD 310651Z AUTO 04010KT 10SM OVC014 03/02 A3002 RMK AO2 SLP167 T00280017
Dest. Wx: KRFD 310654Z 06007KT 10SM OVC055 04/01 A3013 RMK AO2 SLP207 T00390006 $
Notes:

Financial History
Total Freight: 419,271lbs
Average Load: 46,586lbs/flt
Fuel Used: 154,433lbs
Avg. Fuel Used: 17,159lbs/flt
Fuel Expense: $146,711
Avg. Fuel Expense: $16,301
Avg. Fuel Cost: $0.95/lbs
Total Gross Income: $542,219
Pilot Pay: $1,261
Total Expenses: $59,028
Total Revenue: $331,662
Average Revenue: $60,246.52